createdAt,value
2023-04-01T00:00:48.230Z,14462.02
2023-04-01T00:05:54.762Z,14341.28
2023-04-01T00:11:02.174Z,14340.59
2023-04-01T00:16:17.641Z,14387.40
2023-04-01T00:21:23.861Z,14523.20
2023-04-01T00:26:28.556Z,14518.00
2023-04-01T00:31:34.178Z,14493.25
2023-04-01T00:36:37.658Z,14420.26
2023-04-01T00:41:44.468Z,14421.59
2023-04-01T00:46:53.580Z,14485.64
2023-04-01T00:51:59.496Z,14505.88
2023-04-01T00:57:08.505Z,14454.08
2023-04-01T01:02:15.698Z,14436.25
2023-04-01T01:07:29.745Z,14343.02
2023-04-01T01:12:43.329Z,14483.40
2023-04-01T01:17:52.945Z,14539.61
2023-04-01T01:23:18.955Z,14622.17
2023-04-01T01:28:33.403Z,14519.07
2023-04-01T01:33:51.694Z,14558.48
2023-04-01T01:38:59.071Z,14558.23
2023-04-01T01:44:05.473Z,14622.60
2023-04-01T01:49:10.746Z,14619.57
2023-04-01T01:54:18.888Z,14584.77
2023-04-01T01:59:24.673Z,14582.52
2023-04-01T02:04:28.614Z,14562.53
2023-04-01T02:09:36.250Z,14540.46
2023-04-01T02:14:44.798Z,14558.16
2023-04-01T02:19:50.732Z,14493.68
2023-04-01T02:25:00.336Z,14528.71
2023-04-01T02:30:06.481Z,14512.96
2023-04-01T02:35:12.265Z,14508.62
2023-04-01T02:40:19.788Z,14550.50
2023-04-01T02:45:23.129Z,14630.72
2023-04-01T02:50:26.802Z,14710.20
2023-04-01T02:55:32.287Z,14683.00
2023-04-01T03:00:36.364Z,14615.48
2023-04-01T03:05:39.706Z,14548.46
2023-04-01T03:10:44.484Z,14594.51
2023-04-01T03:15:47.844Z,14647.10
2023-04-01T03:20:51.694Z,14723.04
2023-04-01T03:25:58.596Z,14666.50
2023-04-01T03:31:02.035Z,14679.71
2023-04-01T03:36:08.479Z,14664.32
2023-04-01T03:41:15.587Z,14712.49
2023-04-01T03:46:19.758Z,14741.56
2023-04-01T03:51:23.486Z,14770.77
2023-04-01T03:56:28.476Z,14783.75
2023-04-01T04:01:33.342Z,14585.52
2023-04-01T04:06:37.215Z,14560.42
2023-04-01T04:11:42.277Z,14570.26
2023-04-01T04:16:45.658Z,14526.55
2023-04-01T04:21:51.304Z,14121.58
2023-04-01T04:26:56.355Z,14281.70
2023-04-01T04:32:00.064Z,14257.91
2023-04-01T04:37:04.029Z,14274.93
2023-04-01T04:42:12.946Z,14282.13
2023-04-01T04:47:16.717Z,14239.17
2023-04-01T04:52:20.516Z,14228.24
2023-04-01T04:57:25.382Z,14243.12
2023-04-01T05:02:32.625Z,14334.23
2023-04-01T05:07:38.447Z,14370.70
2023-04-01T05:12:43.305Z,14341.40
2023-04-01T05:17:49.498Z,14340.00
2023-04-01T05:22:57.505Z,14389.44
2023-04-01T05:28:02.818Z,14408.04
2023-04-01T05:33:08.354Z,14420.07
2023-04-01T05:38:11.781Z,14434.28
2023-04-01T05:43:18.771Z,14513.97
2023-04-01T05:48:25.330Z,14465.35
2023-04-01T05:53:28.741Z,14504.16
2023-04-01T05:58:33.489Z,14558.48
2023-04-01T06:03:37.490Z,14409.89
2023-04-01T06:08:44.742Z,14439.24
2023-04-01T06:14:03.861Z,14385.09
2023-04-01T06:19:18.302Z,14370.41
2023-04-01T06:24:37.833Z,14448.70
2023-04-01T06:29:53.071Z,14707.42
2023-04-01T06:35:18.297Z,14606.43
2023-04-01T06:40:36.827Z,14513.02
2023-04-01T06:45:51.582Z,14465.03
2023-04-01T06:51:23.459Z,14477.68
2023-04-01T06:57:07.813Z,14522.58
2023-04-01T07:02:23.332Z,14565.06
2023-04-01T07:07:35.678Z,14551.52
2023-04-01T07:12:46.369Z,14563.54
2023-04-01T07:17:55.745Z,14572.68
2023-04-01T07:23:01.242Z,14422.01
2023-04-01T07:28:14.981Z,14379.92
2023-04-01T07:33:35.551Z,14305.36
2023-04-01T07:38:50.137Z,14352.61
2023-04-01T07:44:08.338Z,14464.61
2023-04-01T07:49:19.305Z,14593.44
2023-04-01T07:54:32.892Z,14593.14
2023-04-01T07:59:45.103Z,14438.52
2023-04-01T08:05:31.695Z,14340.99
2023-04-01T08:10:46.256Z,14281.02
2023-04-01T08:16:14.832Z,14264.29
2023-04-01T08:21:30.281Z,14267.60
2023-04-01T08:26:38.358Z,14292.26
2023-04-01T08:31:48.294Z,14308.19
2023-04-01T08:37:00.410Z,14263.45
2023-04-01T08:42:34.081Z,14319.12
2023-04-01T08:47:54.951Z,14326.55
2023-04-01T08:53:05.838Z,14292.95
2023-04-01T08:58:30.713Z,14295.53
2023-04-01T09:04:04.778Z,14304.46
2023-04-01T09:09:28.108Z,14386.81
2023-04-01T09:14:49.106Z,14472.26
2023-04-01T09:20:23.369Z,14484.24
2023-04-01T09:25:46.280Z,14447.96
2023-04-01T09:31:08.502Z,14408.34
2023-04-01T09:36:31.152Z,14462.19
2023-04-01T09:41:43.116Z,13807.49
2023-04-01T09:47:08.769Z,13028.54
2023-04-01T09:52:20.944Z,13920.87
2023-04-01T09:57:43.802Z,13273.63
2023-04-01T10:03:17.642Z,14290.24
2023-04-01T10:08:41.003Z,14328.58
2023-04-01T10:14:02.334Z,14074.47
2023-04-01T10:19:23.890Z,14143.52
2023-04-01T10:24:58.603Z,13913.43
2023-04-01T10:30:25.098Z,13408.40
2023-04-01T10:36:02.627Z,13566.90
2023-04-01T10:41:29.638Z,13493.08
2023-04-01T10:47:07.126Z,13640.12
2023-04-01T10:52:37.681Z,13716.09
2023-04-01T10:58:16.939Z,13624.97
2023-04-01T11:04:14.795Z,13759.72
2023-04-01T11:09:56.058Z,13875.10
2023-04-01T11:15:20.446Z,13801.92
2023-04-01T11:20:39.973Z,13798.95
2023-04-01T11:25:54.737Z,13873.63
2023-04-01T11:31:32.792Z,13698.13
2023-04-01T11:36:47.875Z,13795.43
2023-04-01T11:42:04.498Z,13714.73
2023-04-01T11:47:26.667Z,13637.24
2023-04-01T11:52:42.830Z,13679.95
2023-04-01T11:57:54.066Z,13734.83
2023-04-01T12:03:12.802Z,13750.81
2023-04-01T12:08:33.588Z,13746.64
2023-04-01T12:13:46.775Z,13779.40
2023-04-01T12:18:58.740Z,13789.38
2023-04-01T12:24:15.564Z,13733.08
2023-04-01T12:29:43.095Z,13773.64
2023-04-01T12:34:59.402Z,13721.41
2023-04-01T12:40:20.878Z,13754.23
2023-04-01T12:45:32.302Z,13718.16
2023-04-01T12:50:48.768Z,13691.95
2023-04-01T12:55:53.710Z,13755.11
2023-04-01T13:01:15.320Z,13771.21
2023-04-01T13:06:29.880Z,13710.50
2023-04-01T13:17:29.382Z,13493.18
2023-04-01T13:22:40.950Z,13896.22
2023-04-01T13:27:46.743Z,13996.50
2023-04-01T13:32:58.232Z,14053.13
2023-04-01T13:38:14.455Z,14007.35
2023-04-01T13:43:22.851Z,14067.09
2023-04-01T13:48:32.392Z,14088.05
2023-04-01T13:53:49.186Z,14070.52
2023-04-01T13:59:09.665Z,14099.56
2023-04-01T14:04:45.037Z,14081.00
2023-04-01T14:10:02.557Z,14125.69
2023-04-01T14:15:22.607Z,14078.14
2023-04-01T14:20:32.016Z,14129.87
2023-04-01T14:25:57.872Z,14141.94
2023-04-01T14:31:15.223Z,14146.79
2023-04-01T14:36:36.474Z,14199.07
2023-04-01T14:41:50.131Z,14210.04
2023-04-01T14:47:11.362Z,14219.84
2023-04-01T14:52:19.980Z,14229.92
2023-04-01T14:57:27.988Z,14240.33
2023-04-01T15:02:41.357Z,14267.90
2023-04-01T15:07:57.901Z,14289.46
2023-04-01T15:13:12.079Z,14342.34
2023-04-01T15:18:22.089Z,14338.92
2023-04-01T15:23:37.336Z,14368.49
2023-04-01T15:28:53.126Z,14316.15
2023-04-01T15:34:09.801Z,14484.85
2023-04-01T15:39:17.922Z,14468.31
2023-04-01T15:44:45.473Z,14421.44
2023-04-01T15:49:58.382Z,14352.73
2023-04-01T15:55:25.682Z,14376.24
2023-04-01T16:00:33.048Z,14317.91
2023-04-01T16:05:50.042Z,14357.77
2023-04-01T16:11:09.399Z,14391.79
2023-04-01T16:16:22.267Z,14402.92
2023-04-01T16:21:38.163Z,14452.77
2023-04-01T16:26:50.873Z,14511.71
2023-04-01T16:32:02.537Z,14485.50
2023-04-01T16:37:14.430Z,14476.58
2023-04-01T16:42:37.165Z,14575.27
2023-04-01T16:47:43.309Z,14534.12
2023-04-01T16:53:12.206Z,14622.99
2023-04-01T16:58:21.108Z,14662.92
2023-04-01T17:03:29.891Z,14585.33
2023-04-01T17:08:48.026Z,14499.60
2023-04-01T17:14:00.036Z,14517.14
2023-04-01T17:19:11.201Z,14525.14
2023-04-01T17:24:27.862Z,14479.78
2023-04-01T17:29:36.663Z,14500.99
2023-04-01T17:34:47.264Z,14541.87
2023-04-01T17:39:59.774Z,14479.14
2023-04-01T17:45:11.020Z,14532.36
2023-04-01T17:50:23.885Z,14480.22
2023-04-01T17:55:47.342Z,14426.73
2023-04-01T18:01:11.401Z,14407.38
2023-04-01T18:06:21.977Z,14426.84
2023-04-01T18:11:36.139Z,14489.48
2023-04-01T18:16:49.486Z,14469.17
2023-04-01T18:21:56.843Z,14469.39
2023-04-01T18:27:06.235Z,14518.05
2023-04-01T18:32:15.593Z,14472.04
2023-04-01T18:37:26.199Z,14506.99
2023-04-01T18:42:37.246Z,14515.03
2023-04-01T18:47:48.096Z,14521.20
2023-04-01T18:52:56.252Z,14528.29
2023-04-01T18:58:14.296Z,14493.27
2023-04-01T19:03:24.533Z,14457.56
2023-04-01T19:08:30.162Z,14511.70
2023-04-01T19:13:42.972Z,14455.92
2023-04-01T19:19:01.231Z,14494.62
2023-04-01T19:24:27.940Z,14515.39
2023-04-01T19:29:43.457Z,14056.85
2023-04-01T19:34:53.989Z,14059.79
2023-04-01T19:40:06.297Z,14107.13
2023-04-01T19:45:25.790Z,14120.18
2023-04-01T19:50:38.029Z,14114.18
2023-04-01T19:55:47.294Z,14110.17
2023-04-01T20:00:55.788Z,14068.74
2023-04-01T20:06:13.126Z,14102.50
2023-04-01T20:11:31.327Z,14177.68
2023-04-01T20:16:51.134Z,14177.97
2023-04-01T20:21:59.711Z,14121.14
2023-04-01T20:27:07.095Z,14047.79
2023-04-01T20:32:20.340Z,14041.59
2023-04-01T20:37:35.253Z,14057.60
2023-04-01T20:42:56.922Z,14041.89
2023-04-01T20:48:21.060Z,14000.24
2023-04-01T20:53:30.623Z,13992.95
2023-04-01T20:58:42.580Z,14041.50
2023-04-01T21:03:55.510Z,14011.71
2023-04-01T21:09:11.136Z,14038.56
2023-04-01T21:14:45.065Z,14029.02
2023-04-01T21:20:05.246Z,14060.32
2023-04-01T21:25:23.689Z,14059.10
2023-04-01T21:30:39.377Z,14083.10
2023-04-01T21:35:57.265Z,14067.20
2023-04-01T21:41:16.063Z,14058.07
2023-04-01T21:46:39.872Z,14063.02
2023-04-01T21:52:08.343Z,14053.24
2023-04-01T21:57:29.042Z,14060.09
2023-04-01T22:02:59.617Z,14066.40
2023-04-01T22:08:12.508Z,14066.29
2023-04-01T22:13:20.367Z,14083.50
2023-04-01T22:18:35.692Z,14073.51
2023-04-01T22:23:46.685Z,14097.22
2023-04-01T22:28:57.496Z,14084.10
2023-04-01T22:34:10.980Z,14088.58
2023-04-01T22:39:26.285Z,14068.76
2023-04-01T22:44:40.807Z,14078.55
2023-04-01T22:49:49.468Z,14060.80
2023-04-01T22:54:57.392Z,14083.21
2023-04-01T23:00:09.046Z,14091.19
2023-04-01T23:05:16.863Z,14100.77
2023-04-01T23:10:25.419Z,14067.83
2023-04-01T23:15:31.845Z,14103.60
2023-04-01T23:20:47.747Z,14087.17
2023-04-01T23:25:59.411Z,14063.02
2023-04-01T23:31:05.641Z,14069.21
2023-04-01T23:36:14.371Z,14092.17
2023-04-01T23:41:23.166Z,14081.45
2023-04-01T23:46:27.320Z,14077.13
2023-04-01T23:51:39.759Z,14098.81
2023-04-01T23:56:47.571Z,14101.26
